Latest Weather Observations for Telfer

IDW60801

Issued at 2:35 pm WST Saturday 1 November 2014 (issued every 30 minutes, with the page automatically refreshed every 10 minutes)

About weather observations | Map of weather stations | Latest weather observations for WA | Other Formats
Station Details ID: 013030 Name: TELFER AERO Lat: -21.71 Lon: 122.23 Height: 291.9 m
Data from the previous 72 hours. | See also: Recent months at Telfer
Date/Time
WST
Temp
°C
App
Temp
°C
Dew
Point
Rel
Hum
%
Delta-T
°C
Wind Press
QNH
hPa
Press
MSL
hPa
Rain
since 9 am
mm
Dir
 
Spd
km/h
Gust
km/h
Spd
kts
Gust
kts
01/02:30pm 39.6 35.3 7.1 14 18.6 SSE 19 24 10 13 1007.1 1004.8 0.0
01/02:00pm 38.8 36.7 6.5 14 18.3 N 7 11 4 6 1007.5 1005.2 0.0
01/01:30pm 38.9 35.6 6.6 14 18.3 S 13 20 7 11 1007.8 1005.5 0.0
01/01:00pm 40.0 35.6 6.4 13 19.1 S 19 24 10 13 1008.1 1005.8 0.0
01/12:30pm 38.7 34.3 6.4 14 18.2 E 19 26 10 14 1008.5 1006.3 0.0
01/12:00pm 38.7 34.3 6.4 14 18.2 E 19 30 10 16 1009.0 1006.8 0.0
01/11:30am 38.4 34.4 8.1 16 17.5 SE 19 28 10 15 1009.7 1007.4 0.0
01/11:00am 38.1 33.7 8.8 17 17.1 ESE 22 32 12 17 1010.1 1007.8 0.0
01/10:30am 36.7 31.8 8.5 18 16.3 ESE 24 37 13 20 1010.5 1008.2 0.0
01/10:00am 35.4 29.9 7.5 18 15.8 ESE 26 37 14 20 1011.0 1008.7 0.0
01/09:30am 34.1 27.9 8.0 20 14.8 ESE 30 43 16 23 1011.0 1008.7 0.0
01/09:00am 33.6 27.5 8.3 21 14.3 ESE 30 39 16 21 1011.1 1008.8 0.0
01/08:30am 32.7 26.6 8.2 22 13.8 ESE 30 43 16 23 1011.4 1009.1 0.0
01/08:00am 31.3 24.5 7.1 22 13.3 ESE 32 43 17 23 1011.5 1009.2 0.0
01/07:30am 30.8 23.7 6.6 22 13.2 SE 33 44 18 24 1011.2 1009.2 0.0
01/07:00am 30.0 22.7 5.3 21 13.1 SE 33 43 18 23 1011.0 1009.0 0.0
01/06:30am 28.8 22.1 3.6 20 12.9 SSE 28 35 15 19 1010.7 1008.7 0.0
01/06:00am 27.6 22.1 4.0 22 12.1 SSE 22 28 12 15 1010.3 1008.3 0.0
01/05:30am 27.4 21.1 3.8 22 12.0 SSE 26 33 14 18 1009.9 1007.9 0.0
01/05:00am 27.7 21.5 4.1 22 12.1 SSE 26 32 14 17 1009.6 1007.6 0.0
01/04:30am 28.2 21.1 3.8 21 12.5 SSE 30 37 16 20 1009.1 1007.2 0.0
01/04:00am 28.6 21.7 4.8 22 12.4 SSE 30 39 16 21 1008.8 1006.8 0.0
01/03:30am 29.2 22.4 5.3 22 12.6 S 30 39 16 21 1008.3 1006.3 0.0
01/03:00am 29.7 23.0 5.7 22 12.8 S 30 37 16 20 1007.9 1005.9 0.0
01/02:30am 30.4 24.4 7.0 23 12.8 S 28 37 15 20 1007.9 1005.9 0.0
01/02:23am 30.8 24.9 7.3 23 12.9 S 28 39 15 21 1007.8 1005.8 0.0
01/02:00am 30.8 27.8 9.1 26 12.3 SSW 15 17 8 9 1007.5 1005.5 0.0
01/01:30am 30.4 28.4 8.7 26 12.2 W 9 11 5 6 1007.5 1005.5 0.0
01/01:00am 30.6 28.9 10.0 28 11.9 WNW 9 11 5 6 1007.7 1005.7 0.0
01/12:30am 30.8 29.7 10.7 29 11.7 SSW 7 9 4 5 1008.0 1006.0 0.0
01/12:00am 30.6 30.0 10.5 29 11.7 NW 4 7 2 4 1008.4 1006.4 0.0
 
Date/Time
WST
Temp
°C
App
Temp
°C
Dew
Point
Rel
Hum
%
Delta-T
°C
Wind Press
QNH
hPa
Press
MSL
hPa
Rain
since 9 am
mm
Dir
 
Spd
km/h
Gust
km/h
Spd
kts
Gust
kts
31/11:30pm 30.6 29.8 11.1 30 11.4 W 6 9 3 5 1008.6 1006.6 0.0
31/11:00pm 31.4 31.8 11.2 29 11.9 CALM 0 6 0 3 1008.9 1006.9 0.0
31/10:30pm 32.3 32.6 10.9 27 12.6 CALM 0 0 0 0 1009.4 1007.5 0.0
31/10:00pm 31.6 31.7 11.4 29 11.9 E 2 9 1 5 1009.8 1007.8 0.0
31/09:30pm 33.2 32.6 10.5 25 13.3 E 4 9 2 5 1010.0 1008.0 0.0
31/09:00pm 32.8 30.9 11.9 28 12.5 S 13 17 7 9 1010.1 1008.1 0.0
31/08:30pm 32.9 31.9 10.9 26 12.9 NE 7 13 4 7 1009.3 1007.4 0.0
31/08:00pm 34.7 33.4 9.2 21 14.7 WSW 6 - 3 - - 1007.2 -
31/07:30pm 35.6 30.5 7.6 18 15.8 WSW 24 30 13 16 1008.7 1006.7 0.0
31/07:00pm 36.5 33.1 5.7 15 17.0 W 13 19 7 10 1008.3 1006.3 0.0
31/06:30pm 34.9 33.8 8.6 20 15.1 ENE 4 6 2 3 1007.8 1005.8 0.0
31/06:00pm 36.4 34.9 6.6 16 16.7 S 4 9 2 5 1007.4 1005.4 0.0
31/05:30pm 37.1 31.1 7.1 16 17.0 SW 28 37 15 20 1007.2 1005.2 0.0
31/05:26pm 37.4 31.3 6.4 15 17.4 WSW 28 37 15 20 1007.2 1005.2 0.0
31/05:00pm 38.3 34.5 3.9 12 18.7 WSW 13 19 7 10 1006.9 1004.9 0.0
31/04:30pm 38.3 34.1 3.9 12 18.6 SW 15 22 8 12 1006.8 1004.8 0.0
31/04:00pm 38.5 34.7 4.1 12 18.8 SW 13 17 7 9 1006.7 1004.7 0.0
31/03:30pm 39.1 34.0 3.3 11 19.3 WSW 19 28 10 15 1006.6 1004.6 0.0
31/03:00pm 39.8 35.2 3.8 11 19.7 S 17 24 9 13 1006.7 1004.7 0.0
31/02:30pm 39.2 34.9 3.4 11 19.3 SW 15 20 8 11 1006.8 1004.8 0.0
31/02:00pm 39.8 33.9 3.8 11 19.7 SW 24 32 13 17 1007.2 1005.2 0.0
31/01:30pm 39.3 35.2 2.1 10 19.7 SE 13 30 7 16 1007.5 1005.5 0.0
31/01:00pm 39.3 34.3 3.4 11 19.4 WSW 19 22 10 12 1007.9 1005.9 0.0
31/12:30pm 38.5 33.4 2.8 11 19.0 SSW 19 28 10 15 1008.5 1006.5 0.0
31/12:00pm 38.2 32.5 2.6 11 18.9 SW 22 32 12 17 1008.9 1006.9 0.0
31/11:30am 38.8 33.1 3.1 11 19.2 SSW 22 32 12 17 1009.3 1007.4 0.0
31/11:00am 39.0 33.0 3.2 11 19.3 SSE 24 32 13 17 1009.7 1007.7 0.0
31/10:30am 37.6 30.5 3.4 12 18.3 S 30 41 16 22 1010.1 1008.1 0.0
31/10:00am 36.9 31.0 4.0 13 17.7 S 24 37 13 20 1010.5 1008.5 0.0
31/09:30am 37.2 31.0 4.2 13 17.9 S 26 35 14 19 1010.6 1008.6 0.0
31/09:00am 35.9 29.1 3.2 13 17.3 S 28 43 15 23 1011.0 1009.0 0.0
31/08:30am 35.9 28.7 3.2 13 17.3 SSE 30 39 16 21 1010.9 1008.9 0.0
31/08:00am 35.1 28.0 3.6 14 16.7 S 30 39 16 21 1010.8 1008.8 0.0
31/07:30am 33.5 28.0 4.2 16 15.5 S 22 28 12 15 1010.7 1008.7 0.0
31/07:00am 32.1 27.5 5.6 19 14.3 S 19 26 10 14 1010.5 1008.5 0.0
31/06:30am 31.2 26.3 4.9 19 13.9 S 20 26 11 14 1010.3 1008.3 0.0
31/06:00am 30.4 25.1 4.9 20 13.5 S 22 32 12 17 1009.8 1007.8 0.0
31/05:30am 30.3 25.5 4.9 20 13.4 S 19 30 10 16 1009.3 1007.4 0.0
31/05:00am 30.9 25.9 4.6 19 13.9 S 20 28 11 15 1008.8 1006.8 0.0
31/04:30am 30.9 26.6 5.3 20 13.6 SSW 17 24 9 13 1008.3 1006.3 0.0
31/04:00am 31.7 26.1 5.3 19 14.2 SSW 24 37 13 20 1007.9 1005.9 0.0
31/03:30am 31.9 27.2 6.2 20 14.0 SSW 20 30 11 16 1007.2 1005.2 0.0
31/03:00am 32.5 28.0 5.9 19 14.5 SSW 19 24 10 13 1006.8 1004.8 0.0
31/02:30am 32.7 29.1 6.8 20 14.3 SSW 15 19 8 10 1006.6 1004.6 0.0
31/02:00am 32.9 28.6 7.0 20 14.4 SSW 19 24 10 13 1006.6 1004.6 0.0
31/01:30am 32.6 28.8 7.4 21 14.0 SSW 17 22 9 12 1006.8 1004.8 0.0
31/01:00am 33.3 29.2 8.0 21 14.3 SW 19 30 10 16 1007.1 1005.1 0.0
31/12:30am 32.7 30.6 8.2 22 13.8 W 9 11 5 6 1007.1 1005.1 0.0
31/12:00am 32.5 30.7 8.0 22 13.8 W 7 9 4 5 1007.3 1005.3 0.0
 
Date/Time
WST
Temp
°C
App
Temp
°C
Dew
Point
Rel
Hum
%
Delta-T
°C
Wind Press
QNH
hPa
Press
MSL
hPa
Rain
since 9 am
mm
Dir
 
Spd
km/h
Gust
km/h
Spd
kts
Gust
kts
30/11:30pm 32.9 31.2 8.4 22 13.9 WSW 7 9 4 5 1007.6 1005.6 0.0
30/11:00pm 33.5 31.4 8.2 21 14.3 SW 9 11 5 6 1007.9 1005.9 0.0
30/10:30pm 34.6 31.8 8.4 20 14.9 SW 13 19 7 10 1008.2 1006.2 0.0
30/10:00pm 34.7 31.7 7.7 19 15.3 SW 13 15 7 8 1008.3 1006.3 0.0
30/09:30pm 35.0 33.0 8.7 20 15.1 SW 9 13 5 7 1008.3 1006.3 0.0
30/09:00pm 35.9 32.9 7.9 18 16.0 SSW 13 15 7 8 1008.3 1006.3 0.0
30/08:30pm 36.0 34.0 8.7 19 15.7 W 9 11 5 6 1008.2 1006.2 0.0
30/08:00pm 36.0 33.2 7.1 17 16.3 SW 11 13 6 7 1008.0 1006.0 0.0
30/07:30pm 36.2 34.1 8.1 18 16.1 SW 9 13 5 7 1008.0 1006.0 0.0
30/07:00pm 36.2 34.1 8.1 18 16.1 S 9 11 5 6 1007.5 1005.5 0.0
30/06:30pm 37.3 35.2 8.2 17 16.7 S 9 13 5 7 1007.2 1005.2 0.0
30/06:00pm 37.6 35.7 9.2 18 16.6 S 9 11 5 6 1006.9 1004.9 0.0
30/05:30pm 38.6 36.1 8.3 16 17.6 S 11 15 6 8 1006.8 1004.8 0.0
30/05:00pm 39.2 35.5 7.8 15 18.2 S 17 20 9 11 1006.6 1004.6 0.0
30/04:30pm 39.7 36.6 7.2 14 18.6 SSW 13 19 7 10 1006.4 1004.4 0.0
30/04:00pm 40.4 36.3 7.8 14 18.9 SSW 19 30 10 16 1006.3 1004.3 0.0
30/03:30pm 40.5 35.4 7.8 14 19.0 SW 24 37 13 20 1006.4 1004.4 0.0
30/03:00pm 40.7 36.8 6.9 13 19.4 SW 17 24 9 13 1006.5 1004.5 0.0
30/02:30pm 41.0 36.1 7.1 13 19.5 SSW 22 28 12 15 1006.6 1004.6 0.0
30/02:00pm 42.0 37.7 7.9 13 20.0 SW 20 30 11 16 1006.9 1004.9 0.0
30/01:30pm 40.7 38.2 8.0 14 19.0 SSE 11 24 6 13 1007.2 1005.2 0.0
30/01:00pm 40.9 38.0 8.1 14 19.2 SW 13 26 7 14 1007.6 1005.6 0.0
30/12:30pm 40.6 37.6 7.9 14 19.0 SW 13 19 7 10 1008.0 1006.0 0.0
30/12:00pm 40.9 37.6 8.1 14 19.2 SSW 15 20 8 11 1008.5 1006.5 0.0
30/11:30am 40.6 38.0 7.9 14 19.0 S 11 20 6 11 1008.9 1006.9 0.0
30/11:00am 39.7 36.2 7.2 14 18.6 S 15 24 8 13 1009.3 1007.4 0.0
30/10:30am 39.1 36.0 8.7 16 17.8 SSE 15 24 8 13 1009.8 1007.8 0.0
30/10:00am 38.3 36.2 9.8 18 16.9 SSW 11 17 6 9 1010.2 1008.2 0.0
30/09:30am 37.4 35.8 11.4 21 15.7 S 11 19 6 10 1010.5 1008.5 0.0
30/09:00am 35.8 34.0 12.1 24 14.4 SW 13 17 7 9 1010.7 1008.7 0.0
30/08:30am 35.0 33.7 12.6 26 13.6 SW 11 17 6 9 1010.8 1008.8 0.0
30/08:00am 33.5 32.6 12.5 28 12.7 SW 9 13 5 7 1010.7 1008.7 0.0
30/07:30am 31.9 30.3 12.7 31 11.6 WSW 13 17 7 9 1010.6 1008.6 0.0
30/07:00am 31.2 29.1 12.5 31 11.2 WSW 15 20 8 11 1010.5 1008.5 0.0
30/06:30am 29.2 28.5 14.2 40 9.1 WNW 11 13 6 7 1010.4 1008.4 0.0
30/06:00am 27.9 26.8 14.2 43 8.3 NW 13 26 7 14 1010.1 1008.1 0.0
30/05:30am 27.2 27.0 14.6 46 7.7 N 9 13 5 7 1009.7 1007.7 0.0
30/05:00am 26.0 26.9 15.1 51 6.7 NE 4 7 2 4 1009.4 1007.5 0.0
30/04:30am 25.8 26.1 14.6 50 6.8 NE 6 7 3 4 1009.3 1007.4 0.0
30/04:00am 27.9 27.3 14.5 44 8.2 WNW 11 15 6 8 1009.1 1007.2 0.0
30/03:30am 28.4 27.7 14.3 42 8.6 NW 11 15 6 8 1009.1 1007.2 0.0
30/03:00am 28.9 27.4 14.3 40 8.9 WNW 15 19 8 10 1009.0 1007.0 0.0
30/02:30am 29.6 28.5 14.2 39 9.4 WNW 13 17 7 9 1009.2 1007.3 0.0
30/02:00am 29.9 29.1 14.0 37 9.7 WNW 11 15 6 8 1009.0 1007.0 0.0
30/01:30am 30.6 29.1 14.2 36 10.0 WNW 15 20 8 11 1009.0 1007.0 0.0
30/01:00am 31.0 29.3 14.6 37 10.1 WNW 17 22 9 12 1009.2 1007.3 0.0
30/12:30am 31.4 29.0 14.5 35 10.4 WNW 20 28 11 15 1009.6 1007.6 0.0
30/12:00am 30.9 28.6 14.1 36 10.3 NW 19 24 10 13 1009.8 1007.8 0.0
 
Date/Time
WST
Temp
°C
App
Temp
°C
Dew
Point
Rel
Hum
%
Delta-T
°C
Wind Press
QNH
hPa
Press
MSL
hPa
Rain
since 9 am
mm
Dir
 
Spd
km/h
Gust
km/h
Spd
kts
Gust
kts
29/11:30pm 31.7 29.1 13.9 34 10.9 NW 20 30 11 16 1010.0 1008.0 0.0
29/11:00pm 32.2 29.7 13.4 32 11.5 NW 19 24 10 13 1010.3 1008.3 0.0
29/10:30pm 33.0 30.3 13.6 31 11.9 NW 20 30 11 16 1010.6 1008.6 0.0
29/10:00pm 33.3 31.1 13.4 30 12.2 NW 17 24 9 13 1010.8 1008.8 0.0
29/09:30pm 33.2 30.8 13.8 31 11.9 NW 19 26 10 14 1010.9 1008.9 0.0
29/09:00pm 33.6 31.3 14.1 30 12.1 NW 19 26 10 14 1010.9 1008.9 0.0
29/08:30pm 34.4 32.2 13.3 28 12.9 NW 17 22 9 12 1010.7 1008.7 0.0
29/08:00pm 34.8 33.9 12.5 26 13.5 NW 9 15 5 8 1010.5 1008.5 0.0
29/07:30pm 35.1 34.0 12.1 25 13.9 NW 9 13 5 7 1010.2 1008.2 0.0
29/07:00pm 35.4 34.2 11.7 23 14.3 NNW 9 15 5 8 1009.9 1007.9 0.0
29/06:30pm 36.3 35.0 11.2 22 15.0 NNW 9 11 5 6 1009.8 1007.8 0.0
29/06:00pm 37.2 36.3 11.2 21 15.6 NNW 7 11 4 6 1009.3 1007.4 0.0
29/05:30pm 38.1 36.6 10.4 19 16.5 NNW 9 13 5 7 1009.2 1007.3 0.0
29/05:00pm 38.5 36.1 10.0 18 16.9 NW 13 19 7 10 1009.1 1007.2 0.0
29/04:30pm 38.8 35.2 8.5 16 17.6 NW 17 24 9 13 1009.0 1007.0 0.0
29/04:00pm 39.7 35.7 8.2 15 18.3 NW 19 28 10 15 1008.9 1006.9 0.0
29/03:30pm 39.9 36.4 7.4 14 18.7 NW 15 22 8 12 1008.8 1006.8 0.0
29/03:00pm 39.6 36.3 8.1 15 18.3 NW 15 24 8 13 1008.9 1006.9 0.0

Other Formats:

Comma delimited format used in spreadsheet applications
http://www.bom.gov.au/fwo/IDW60801/IDW60801.94319.axf

JavaScript Object Notation format (JSON) in row-major order
http://www.bom.gov.au/fwo/IDW60801/IDW60801.94319.json